Flight Track Log - Related Links

Times and Time Zones

All times are in EST time to prevent confusion due to time zone crossing. See the PDT4207 flight status page for this flight to view local times or setup timezone preferences in your user account.

Time Position Orientation Groundspeed Altitude Reporting Facility
EST Latitude Longitude Course Direction KTS MPH feet Rate Location/Type
Fri 09:51:02 PM 39.9000 -75.2333 311° West 121 139 600  Level Philadelphia TRACON
Fri 09:51:26 PM 39.9000 -75.2500 270° West 114 131 1,300 1,643 Climbing Philadelphia TRACON
Fri 09:52:26 PM 39.9167 -75.2833 303° West 114 131 2,900 1,632 Climbing Philadelphia TRACON
Fri 09:53:20 PM 39.9333 -75.3167 303° West 133 153 4,400 1,526 Climbing Philadelphia TRACON
Fri 09:54:00 PM 40.0699 -75.4183 339° North  Level FlightAware Approximate
Fri 09:54:20 PM 39.9667 -75.3167 360° North 134 154 5,800  Level Philadelphia TRACON
Fri 09:55:00 PM 40.1170 -75.4670 323° Northwest  Level FlightAware Approximate
Fri 09:55:20 PM 40.0167 -75.3500 333° Northwest 174 200 6,000  Level Philadelphia TRACON
Fri 09:56:00 PM 40.1699 -75.5048 311° West  Level FlightAware Approximate
Fri 09:56:14 PM 40.0500 -75.3833 323° Northwest 179 206 6,000  Level Philadelphia TRACON
Fri 09:57:04 PM 40.0803 -75.4181 319° Northwest 185 213 6,000 164 Level New York Center
Fri 09:58:04 PM 40.1164 -75.4531 323° Northwest 192 221 6,300 600 Climbing New York Center
Fri 09:59:04 PM 40.1544 -75.4936 321° Northwest 169 194 7,200 900 Climbing New York Center
Fri 10:00:04 PM 40.1864 -75.5258 322° Northwest 164 189 8,100 900 Climbing New York Center
Fri 10:01:04 PM 40.2358 -75.5400 348° North 164 189 9,000 950 Climbing New York Center
Fri 10:02:04 PM 40.2833 -75.5514 350° North 169 194 10,000 1,000 Climbing New York Center
Fri 10:03:04 PM 40.3394 -75.5581 355° North 178 205 11,000 800 Climbing New York Center
Fri 10:04:04 PM 40.3911 -75.5697 350° North 183 211 11,600 500 Climbing New York Center
Fri 10:05:04 PM 40.4467 -75.5872 347° North 188 216 12,000 200 Climbing New York Center
Fri 10:06:04 PM 40.5067 -75.5969 353° North 223 257 12,000 -200 Level New York Center
Fri 10:07:04 PM 40.5750 -75.6100 352° North 244 281 11,600 -650 Descending New York Center
Fri 10:08:04 PM 40.6619 -75.6217 354° North 274 315 10,700 -800 Descending New York Center
Fri 10:09:04 PM 40.7361 -75.6433 348° North 279 321 10,000 -350 Descending New York Center
Fri 10:10:04 PM 40.8103 -75.6622 349° North 273 314 10,000  Level New York Center
Fri 10:11:04 PM 40.8700 -75.6803 347° North 258 297 10,000  Level New York Center
Fri 10:12:04 PM 40.9383 -75.6906 354° North 252 290 10,000 -50 Level New York Center
Fri 10:13:04 PM 41.0150 -75.6989 355° North 252 290 9,900 -50 Descending New York Center
Fri 10:14:04 PM 41.0808 -75.7203 346° North 252 290 9,900 50 Level New York Center
Fri 10:15:04 PM 41.1403 -75.7411 345° North 252 290 10,000 50 Climbing New York Center
Fri 10:16:04 PM 41.2064 -75.7542 352° North 246 283 10,000  Level New York Center
Fri 10:17:04 PM 41.2808 -75.7681 352° North 246 283 10,000  Level New York Center
Fri 10:18:04 PM 41.3467 -75.7867 348° North 241 277 10,000  Level New York Center
Fri 10:19:04 PM 41.4108 -75.7969 353° North 236 272 10,000 -300 Level New York Center
Fri 10:20:04 PM 41.4747 -75.8128 349° North 236 272 9,400 -750 Descending New York Center
Fri 10:21:04 PM 41.5367 -75.8286 349° North 236 272 8,500 -700 Descending New York Center
Fri 10:22:04 PM 41.6025 -75.8447 350° North 236 272 8,000 -250 Descending New York Center
Fri 10:23:04 PM 41.6708 -75.8583 352° North 236 272 8,000  Level New York Center
Fri 10:24:04 PM 41.7303 -75.8739 349° North 224 258 8,000 -400 Level New York Center
Fri 10:25:04 PM 41.7900 -75.8897 349° North 218 251 7,200 -850 Descending New York Center
Fri 10:26:04 PM 41.8500 -75.9025 351° North 231 266 6,300 -950 Descending New York Center
Fri 10:27:04 PM 41.9292 -75.9031 360° North 244 281 5,300 -950 Descending New York Center
Fri 10:28:04 PM 41.9956 -75.9056 358° North 244 281 4,400 -900 Descending New York Center
Fri 10:29:04 PM 42.0475 -75.9094 357° North 235 270 3,500 -650 Descending New York Center
Fri 10:30:04 PM 42.1056 -75.9114 359° North 210 242 3,100 -350 Descending New York Center
Fri 10:31:04 PM 42.1444 -75.9283 342° North 176 203 2,800 -450 Descending New York Center
Fri 10:32:04 PM 42.1706 -75.9500 328° Northwest 136 157 2,200 -350 Descending New York Center
Fri 10:33:04 PM 42.2156 -75.9675 344° North 136 157 2,100 -100 Descending New York Center

Login

Don't have an account? Register now (free) for customized features, flight alerts, and more!